Time;durP1;ratioP1;P1;durP2;ratioP2;P2;SDS_P1;SDS_P2;PMS_P1;PMS_P2;Temp;Humidity;BMP_temperature;BMP_pressure;BME280_temperature;BME280_humidity;BME280_pressure;Samples;Min_cycle;Max_cycle;Signal;HPM_P1;HPM_P2
2023/05/28 00:02:10;;;;;;;14.27;6.47;;;17.50;99.90;;;;;;5018828;28;20084;-70
2023/05/28 00:04:36;;;;;;;13.75;6.15;;;17.50;99.90;;;;;;5024798;28;20105;-70
2023/05/28 00:07:01;;;;;;;10.13;6.13;;;17.50;99.90;;;;;;5018808;28;20045;-70
2023/05/28 00:09:27;;;;;;;17.10;6.82;;;17.40;99.90;;;;;;5019057;28;20022;-70
2023/05/28 00:11:53;;;;;;;14.68;7.78;;;17.40;99.90;;;;;;5000869;28;20018;-70
2023/05/28 00:14:18;;;;;;;15.77;7.78;;;17.40;99.90;;;;;;5001364;28;20105;-70
2023/05/28 00:16:45;;;;;;;19.73;8.27;;;17.40;99.90;;;;;;5018456;28;20053;-70
2023/05/28 00:19:11;;;;;;;15.68;7.20;;;17.30;99.90;;;;;;5018905;28;20041;-68
2023/05/28 00:21:37;;;;;;;16.27;8.15;;;17.30;99.90;;;;;;5017133;28;20179;-68
2023/05/28 00:24:04;;;;;;;12.07;6.82;;;17.40;99.90;;;;;;5018643;28;20045;-68
2023/05/28 00:26:30;;;;;;;15.45;8.05;;;17.30;99.90;;;;;;5000561;28;20018;-68
2023/05/28 00:28:55;;;;;;;17.80;7.88;;;17.20;99.90;;;;;;5018579;28;20017;-68
2023/05/28 00:31:21;;;;;;;15.43;7.68;;;17.20;99.90;;;;;;5000569;28;20401;-69
2023/05/28 00:33:46;;;;;;;17.17;7.40;;;17.10;99.90;;;;;;5018588;28;20088;-70
2023/05/28 00:36:13;;;;;;;13.60;7.57;;;17.00;99.90;;;;;;5018211;28;20032;-70
2023/05/28 00:38:38;;;;;;;13.63;7.20;;;16.90;99.90;;;;;;5018299;28;20029;-69
2023/05/28 00:41:04;;;;;;;18.20;7.78;;;16.90;99.90;;;;;;5017950;28;20026;-67
2023/05/28 00:43:30;;;;;;;17.38;7.53;;;16.90;99.90;;;;;;5017261;28;20037;-68
2023/05/28 00:46:06;;;;;;;16.75;6.90;;;16.90;99.90;;;;;;5018172;28;20033;-67
2023/05/28 00:48:32;;;;;;;18.88;7.70;;;16.80;99.90;;;;;;5018180;28;20029;-68
2023/05/28 00:51:02;;;;;;;15.65;7.10;;;16.80;99.90;;;;;;5017823;28;20017;-68
2023/05/28 00:53:28;;;;;;;16.48;7.90;;;16.70;99.90;;;;;;5017754;28;20059;-68
2023/05/28 00:55:53;;;;;;;19.13;7.50;;;16.70;99.90;;;;;;5013264;28;20046;-68
2023/05/28 00:58:20;;;;;;;13.85;8.02;;;16.70;99.90;;;;;;4986275;28;20026;-68
2023/05/28 01:00:46;;;;;;;20.15;8.32;;;16.70;99.90;;;;;;4998059;28;20026;-68
2023/05/28 01:03:12;;;;;;;15.77;7.45;;;16.70;99.90;;;;;;4998240;28;20030;-67
2023/05/28 01:05:38;;;;;;;13.73;7.70;;;16.70;99.90;;;;;;5006609;28;20018;-68
2023/05/28 01:08:08;;;;;;;12.40;7.03;;;16.70;99.90;;;;;;4998021;28;20025;-67
2023/05/28 01:10:34;;;;;;;15.93;7.60;;;16.70;99.90;;;;;;4977582;28;20019;-68
2023/05/28 01:13:03;;;;;;;17.38;7.00;;;16.60;99.90;;;;;;4995133;28;20026;-67
2023/05/28 01:15:29;;;;;;;17.88;8.90;;;16.60;99.90;;;;;;4998052;28;20394;-67
2023/05/28 01:18:00;;;;;;;13.70;7.63;;;16.50;99.90;;;;;;4998029;28;20022;-68
2023/05/28 01:20:28;;;;;;;12.52;7.68;;;16.50;99.90;;;;;;4997797;28;20022;-67
2023/05/28 01:22:57;;;;;;;15.65;8.60;;;16.50;99.90;;;;;;4997718;28;20027;-68
2023/05/28 01:25:24;;;;;;;12.98;8.15;;;16.50;99.90;;;;;;4997541;28;20375;-67
2023/05/28 01:27:50;;;;;;;17.55;7.55;;;16.50;99.90;;;;;;4998091;28;20109;-68
2023/05/28 01:30:16;;;;;;;14.85;7.60;;;16.50;99.90;;;;;;4997694;28;20042;-68
2023/05/28 01:32:42;;;;;;;15.48;7.75;;;16.50;99.90;;;;;;4997883;28;20105;-68
2023/05/28 01:35:09;;;;;;;14.07;8.10;;;16.40;99.90;;;;;;4997567;28;20062;-68
2023/05/28 01:37:39;;;;;;;12.23;7.45;;;16.40;99.90;;;;;;4997717;28;20426;-68
2023/05/28 01:40:07;;;;;;;11.63;7.23;;;16.40;99.90;;;;;;4997325;28;20022;-68
2023/05/28 01:42:34;;;;;;;18.30;8.18;;;16.40;99.90;;;;;;4978429;28;20293;-67
2023/05/28 01:45:02;;;;;;;14.75;7.72;;;16.40;99.90;;;;;;4984477;28;20395;-68
2023/05/28 01:47:29;;;;;;;14.32;7.68;;;16.40;99.90;;;;;;4979868;28;20022;-67
2023/05/28 01:49:55;;;;;;;12.10;7.13;;;16.40;99.90;;;;;;4997639;28;20045;-67
2023/05/28 01:52:21;;;;;;;12.85;8.05;;;16.30;99.90;;;;;;4983519;28;20030;-67
2023/05/28 01:54:47;;;;;;;12.35;8.73;;;16.30;99.90;;;;;;4997578;28;20138;-67
2023/05/28 01:57:13;;;;;;;13.57;7.40;;;16.20;99.90;;;;;;4997111;28;20051;-68
2023/05/28 01:59:38;;;;;;;16.25;7.70;;;16.10;99.90;;;;;;4997326;28;20402;-68
2023/05/28 02:02:05;;;;;;;13.77;7.60;;;16.20;99.90;;;;;;4999885;28;20034;-67
2023/05/28 02:04:30;;;;;;;20.95;8.55;;;16.20;99.90;;;;;;5001101;28;20065;-68
2023/05/28 02:06:56;;;;;;;21.05;8.77;;;16.10;99.90;;;;;;5001222;28;20397;-68
2023/05/28 02:09:22;;;;;;;12.60;7.85;;;16.10;99.90;;;;;;5001397;28;20027;-67
2023/05/28 02:11:47;;;;;;;12.07;8.27;;;16.20;99.90;;;;;;5001270;28;20093;-68
2023/05/28 02:14:14;;;;;;;16.25;8.23;;;16.10;99.90;;;;;;5001523;28;20027;-67
2023/05/28 02:16:47;;;;;;;12.93;7.20;;;16.00;99.90;;;;;;4982657;28;20033;-67
2023/05/28 02:19:14;;;;;;;17.67;7.72;;;16.00;99.90;;;;;;5001380;28;20034;-67
2023/05/28 02:21:39;;;;;;;18.48;7.78;;;16.00;99.90;;;;;;5001080;28;20057;-67
2023/05/28 02:24:06;;;;;;;15.95;8.23;;;16.00;99.90;;;;;;5001141;28;20395;-67
2023/05/28 02:26:31;;;;;;;15.35;8.45;;;16.00;99.90;;;;;;5001055;28;20015;-67
2023/05/28 02:28:57;;;;;;;15.93;7.50;;;16.00;99.90;;;;;;5000161;28;20022;-67
2023/05/28 02:31:23;;;;;;;12.35;7.50;;;16.00;99.90;;;;;;5012456;28;20457;-68
2023/05/28 02:33:48;;;;;;;14.15;7.63;;;16.00;99.90;;;;;;5000321;28;20101;-67
2023/05/28 02:36:14;;;;;;;18.60;9.88;;;16.00;99.90;;;;;;5000813;28;20041;-68
2023/05/28 02:38:41;;;;;;;14.15;8.95;;;15.90;99.90;;;;;;5001041;28;20394;-67
2023/05/28 02:41:07;;;;;;;10.38;7.43;;;15.90;99.90;;;;;;5000479;28;20027;-67
2023/05/28 02:43:33;;;;;;;15.55;8.25;;;15.90;99.90;;;;;;5001204;28;20375;-67
2023/05/28 02:45:59;;;;;;;12.55;8.13;;;15.90;99.90;;;;;;5000580;28;20033;-68
2023/05/28 02:48:25;;;;;;;15.32;8.07;;;15.80;99.90;;;;;;5000766;28;20026;-67
2023/05/28 02:50:51;;;;;;;15.70;8.13;;;15.80;99.90;;;;;;5000787;28;20367;-67
2023/05/28 02:53:20;;;;;;;17.08;8.38;;;15.80;99.90;;;;;;5000706;28;20077;-68
2023/05/28 02:55:46;;;;;;;16.52;7.68;;;15.80;99.90;;;;;;4986278;28;20049;-67
2023/05/28 02:58:12;;;;;;;16.35;8.20;;;15.70;99.90;;;;;;5006543;28;20030;-67
2023/05/28 03:00:38;;;;;;;19.45;8.35;;;15.60;99.90;;;;;;5019989;28;20032;-67
2023/05/28 03:03:04;;;;;;;15.25;7.65;;;15.60;99.90;;;;;;5020154;28;20025;-67
2023/05/28 03:05:31;;;;;;;14.82;8.38;;;15.70;99.90;;;;;;5017008;28;20018;-67
2023/05/28 03:07:57;;;;;;;15.10;7.95;;;15.60;99.90;;;;;;5019462;28;20076;-67
2023/05/28 03:10:23;;;;;;;24.45;8.98;;;15.50;99.90;;;;;;5019705;28;20014;-67
2023/05/28 03:12:49;;;;;;;14.52;7.68;;;15.50;99.90;;;;;;5019765;28;20040;-67
2023/05/28 03:15:14;;;;;;;17.50;8.32;;;15.40;99.90;;;;;;5002252;28;20030;-67
2023/05/28 03:17:40;;;;;;;18.17;8.43;;;15.50;99.90;;;;;;5019999;28;20088;-67
2023/05/28 03:20:10;;;;;;;15.63;7.75;;;15.50;99.90;;;;;;5019758;28;20507;-69
2023/05/28 03:22:36;;;;;;;13.85;7.30;;;15.50;99.90;;;;;;5019634;28;20026;-70
2023/05/28 03:25:03;;;;;;;23.15;9.00;;;15.40;99.90;;;;;;5019395;28;20587;-70
2023/05/28 03:27:28;;;;;;;17.65;9.25;;;15.30;99.90;;;;;;5019739;28;20026;-69
2023/05/28 03:29:54;;;;;;;14.93;8.25;;;15.30;99.90;;;;;;5019473;28;20512;-70
2023/05/28 03:32:20;;;;;;;21.38;8.45;;;15.30;99.90;;;;;;5019650;28;20450;-69
2023/05/28 03:34:46;;;;;;;14.73;6.95;;;15.30;99.90;;;;;;5019555;28;20021;-69
2023/05/28 03:37:12;;;;;;;15.40;7.82;;;15.30;99.90;;;;;;5019220;28;20026;-69
2023/05/28 03:39:37;;;;;;;15.35;8.10;;;15.30;99.90;;;;;;5019282;28;20038;-69
2023/05/28 03:42:04;;;;;;;18.20;7.28;;;15.30;99.90;;;;;;5001556;28;20064;-70
2023/05/28 03:44:30;;;;;;;19.02;7.82;;;15.30;99.90;;;;;;5000869;28;20018;-69
2023/05/28 03:46:56;;;;;;;14.32;7.82;;;15.20;99.90;;;;;;5018246;28;20478;-69
2023/05/28 03:49:21;;;;;;;20.70;8.07;;;15.20;99.90;;;;;;5019023;28;20041;-69
2023/05/28 03:51:47;;;;;;;19.80;8.52;;;15.10;99.90;;;;;;5019193;28;20026;-70
2023/05/28 03:54:13;;;;;;;14.45;8.07;;;15.10;99.90;;;;;;5019057;28;20026;-69
2023/05/28 03:56:38;;;;;;;13.63;7.90;;;15.10;99.90;;;;;;5008447;28;20050;-70
2023/05/28 03:59:04;;;;;;;17.30;8.60;;;15.10;99.90;;;;;;4999331;28;20032;-69
2023/05/28 04:01:30;;;;;;;15.77;7.80;;;15.00;99.90;;;;;;4999106;28;20053;-69
2023/05/28 04:03:56;;;;;;;16.00;7.80;;;15.00;99.90;;;;;;5003102;28;20093;-69
2023/05/28 04:06:22;;;;;;;13.68;8.10;;;15.00;99.90;;;;;;5005278;28;20061;-70
2023/05/28 04:08:48;;;;;;;17.90;10.18;;;15.00;99.90;;;;;;4999164;28;20483;-70
2023/05/28 04:11:14;;;;;;;15.27;8.88;;;14.90;99.90;;;;;;4999042;28;20050;-69
2023/05/28 04:13:40;;;;;;;13.13;8.38;;;14.90;99.90;;;;;;4999226;28;20093;-70
2023/05/28 04:16:07;;;;;;;15.23;9.75;;;14.90;99.90;;;;;;4999171;28;20106;-69
2023/05/28 04:18:33;;;;;;;20.02;9.27;;;14.80;99.90;;;;;;4998990;28;20030;-70
2023/05/28 04:20:58;;;;;;;17.88;8.85;;;14.80;99.90;;;;;;4999311;28;20402;-69
2023/05/28 04:23:24;;;;;;;17.92;8.95;;;14.80;99.90;;;;;;4998430;28;20031;-69
2023/05/28 04:25:50;;;;;;;13.80;8.00;;;14.80;99.90;;;;;;4980995;28;20160;-70
2023/05/28 04:28:16;;;;;;;19.48;7.97;;;14.80;99.90;;;;;;4998915;28;20054;-69
2023/05/28 04:30:41;;;;;;;21.70;8.63;;;14.90;99.90;;;;;;4999153;28;20104;-70
2023/05/28 04:33:10;;;;;;;14.95;9.75;;;14.90;99.90;;;;;;4981121;28;20026;-69
2023/05/28 04:35:35;;;;;;;19.23;9.43;;;14.80;99.90;;;;;;4998882;28;20050;-69
2023/05/28 04:38:01;;;;;;;14.55;8.43;;;14.80;99.90;;;;;;4998471;28;20022;-70
2023/05/28 04:40:26;;;;;;;17.25;8.50;;;14.80;99.90;;;;;;4998670;28;20034;-69
2023/05/28 04:42:55;;;;;;;18.52;8.90;;;14.80;99.90;;;;;;4998591;28;20475;-69
2023/05/28 04:45:21;;;;;;;18.10;8.98;;;14.90;99.90;;;;;;4997803;28;20046;-69
2023/05/28 04:47:48;;;;;;;18.23;9.25;;;14.90;99.90;;;;;;4998348;28;20026;-70
2023/05/28 04:50:14;;;;;;;21.25;9.13;;;15.00;99.90;;;;;;4998509;28;20022;-69
2023/05/28 04:52:39;;;;;;;15.68;8.60;;;15.00;99.90;;;;;;4998123;28;20494;-70
2023/05/28 04:55:06;;;;;;;16.13;9.02;;;15.10;99.90;;;;;;4998303;28;20053;-69
2023/05/28 04:57:32;;;;;;;14.27;8.65;;;15.10;99.90;;;;;;4995043;28;20054;-70
2023/05/28 04:59:58;;;;;;;14.10;9.02;;;15.20;99.90;;;;;;5012045;28;20036;-69
2023/05/28 05:02:24;;;;;;;25.15;9.77;;;15.30;99.90;;;;;;5017869;28;20022;-70
2023/05/28 05:04:50;;;;;;;22.05;9.15;;;15.40;99.90;;;;;;5018277;28;20037;-69
2023/05/28 05:07:17;;;;;;;17.83;9.32;;;15.50;99.90;;;;;;4999778;28;20105;-69
2023/05/28 05:09:42;;;;;;;18.08;9.32;;;15.60;99.90;;;;;;5017995;28;20022;-69
2023/05/28 05:12:09;;;;;;;11.75;8.65;;;15.60;99.90;;;;;;5017474;28;20032;-69
2023/05/28 05:14:35;;;;;;;22.65;9.43;;;15.70;99.90;;;;;;5018082;28;20374;-70
2023/05/28 05:17:02;;;;;;;14.65;8.70;;;15.80;99.90;;;;;;5016608;28;20030;-69
2023/05/28 05:19:28;;;;;;;15.80;9.40;;;15.80;99.90;;;;;;5017840;28;20037;-69
2023/05/28 05:21:54;;;;;;;19.23;9.25;;;15.90;99.90;;;;;;4999561;28;20018;-69
2023/05/28 05:24:20;;;;;;;15.70;8.07;;;15.90;99.90;;;;;;4999788;28;20022;-69
2023/05/28 05:26:46;;;;;;;13.75;8.68;;;15.90;99.90;;;;;;5017438;28;20462;-69
2023/05/28 05:29:11;;;;;;;14.70;8.48;;;15.90;99.90;;;;;;5017418;28;20049;-69
2023/05/28 05:31:37;;;;;;;14.27;8.98;;;16.00;99.90;;;;;;4999846;28;20387;-70
2023/05/28 05:34:04;;;;;;;22.38;8.95;;;16.00;99.90;;;;;;4996472;28;20034;-69
2023/05/28 05:36:30;;;;;;;20.42;9.45;;;16.10;99.90;;;;;;5014791;28;20025;-69
2023/05/28 05:38:56;;;;;;;19.45;8.68;;;16.20;99.90;;;;;;4999817;28;20061;-69
2023/05/28 05:41:21;;;;;;;20.73;8.80;;;16.20;99.90;;;;;;4999424;28;20026;-69
2023/05/28 05:43:47;;;;;;;22.85;9.07;;;16.30;99.90;;;;;;5017433;28;20029;-69
2023/05/28 05:46:13;;;;;;;16.90;8.07;;;16.30;99.90;;;;;;5016149;28;20486;-69
2023/05/28 05:48:39;;;;;;;18.05;9.23;;;16.40;99.90;;;;;;5017238;28;20026;-70
2023/05/28 05:51:06;;;;;;;14.63;8.48;;;16.50;99.90;;;;;;4999611;28;20402;-70
2023/05/28 05:53:31;;;;;;;13.50;8.18;;;16.60;99.90;;;;;;5017010;28;20026;-70
2023/05/28 05:55:57;;;;;;;17.80;9.85;;;16.70;99.90;;;;;;5012030;28;20073;-69
2023/05/28 05:58:23;;;;;;;17.58;8.18;;;16.80;99.90;;;;;;4997423;28;20105;-70
2023/05/28 06:00:48;;;;;;;16.33;8.35;;;16.90;99.90;;;;;;4980049;28;20034;-70
2023/05/28 06:03:14;;;;;;;15.02;8.13;;;17.00;99.90;;;;;;4979703;28;20022;-73
2023/05/28 06:05:40;;;;;;;14.18;7.80;;;17.00;99.90;;;;;;5005595;28;20022;-71
2023/05/28 06:08:06;;;;;;;18.40;8.25;;;17.10;99.90;;;;;;4997130;28;20018;-70
2023/05/28 06:10:32;;;;;;;15.25;8.02;;;17.20;99.90;;;;;;4997352;28;20459;-70
2023/05/28 06:13:01;;;;;;;18.38;9.38;;;17.30;99.90;;;;;;4997352;28;20023;-69
2023/05/28 06:15:27;;;;;;;16.80;7.57;;;17.40;99.90;;;;;;4997419;28;20118;-69
2023/05/28 06:17:53;;;;;;;19.67;9.05;;;17.50;99.90;;;;;;4997259;28;20078;-68
2023/05/28 06:20:19;;;;;;;23.00;7.85;;;17.50;99.90;;;;;;4979781;28;20041;-71
2023/05/28 06:22:45;;;;;;;15.85;8.50;;;17.60;99.90;;;;;;4997024;28;20026;-68
2023/05/28 06:25:11;;;;;;;22.92;8.23;;;17.80;99.90;;;;;;4996057;28;20030;-68
2023/05/28 06:27:37;;;;;;;23.60;10.18;;;17.90;99.90;;;;;;4979762;28;20106;-68
2023/05/28 06:30:04;;;;;;;21.05;8.48;;;18.10;99.90;;;;;;4997173;28;20050;-69
2023/05/28 06:32:31;;;;;;;18.30;8.32;;;18.20;99.90;;;;;;4979747;28;20023;-69
2023/05/28 06:34:57;;;;;;;19.02;8.00;;;18.40;99.90;;;;;;4997254;28;20866;-68
2023/05/28 06:37:22;;;;;;;21.75;7.90;;;18.50;99.90;;;;;;4979302;28;20030;-69
2023/05/28 06:39:48;;;;;;;15.90;7.47;;;18.60;99.90;;;;;;4996910;28;20038;-69
2023/05/28 06:42:14;;;;;;;14.52;7.53;;;18.80;99.90;;;;;;4996701;28;20483;-69
2023/05/28 06:44:41;;;;;;;15.43;8.07;;;18.90;99.90;;;;;;4996930;28;20379;-68
2023/05/28 06:47:06;;;;;;;17.65;7.13;;;19.10;99.90;;;;;;4980085;28;20023;-68
2023/05/28 06:49:32;;;;;;;15.60;8.02;;;19.10;99.90;;;;;;4983137;28;20038;-68
2023/05/28 06:51:58;;;;;;;26.77;7.15;;;19.30;99.90;;;;;;5000175;28;20054;-71
2023/05/28 06:54:23;;;;;;;21.00;8.15;;;19.40;99.90;;;;;;4996237;28;20027;-69
2023/05/28 06:56:49;;;;;;;20.27;7.60;;;19.50;99.90;;;;;;4983067;28;20534;-69
2023/05/28 06:59:15;;;;;;;16.50;6.78;;;19.60;99.90;;;;;;4966949;28;20519;-69
2023/05/28 07:01:41;;;;;;;16.98;6.72;;;19.80;99.90;;;;;;4995418;28;20026;-69
2023/05/28 07:04:07;;;;;;;20.55;7.00;;;19.70;99.90;;;;;;5000329;28;20022;-68
2023/05/28 07:06:33;;;;;;;15.05;8.98;;;19.80;99.90;;;;;;5000189;28;20026;-69
2023/05/28 07:08:59;;;;;;;14.30;6.93;;;19.90;99.90;;;;;;5000153;28;20018;-68
2023/05/28 07:11:26;;;;;;;19.92;7.05;;;20.00;99.90;;;;;;5000001;28;20366;-70
2023/05/28 07:13:54;;;;;;;14.52;7.15;;;19.90;99.90;;;;;;5000197;28;20014;-68
2023/05/28 07:16:20;;;;;;;20.10;6.53;;;20.00;99.90;;;;;;4984849;28;20076;-69
2023/05/28 07:18:46;;;;;;;21.10;7.85;;;20.20;99.90;;;;;;5000129;28;20026;-69
2023/05/28 07:21:12;;;;;;;16.60;7.28;;;20.40;99.90;;;;;;4999950;28;20022;-69
2023/05/28 07:23:37;;;;;;;20.38;7.95;;;20.50;99.90;;;;;;5000034;28;20105;-69
2023/05/28 07:26:03;;;;;;;12.18;6.03;;;20.60;99.90;;;;;;4999975;28;20106;-68
2023/05/28 07:28:29;;;;;;;16.67;6.65;;;20.70;99.90;;;;;;4999777;28;20486;-69
2023/05/28 07:30:56;;;;;;;14.27;6.30;;;20.90;99.90;;;;;;5000008;28;20451;-68
2023/05/28 07:33:21;;;;;;;13.27;6.05;;;21.00;99.90;;;;;;4999826;28;20022;-68
2023/05/28 07:35:47;;;;;;;14.65;6.05;;;21.10;99.90;;;;;;4999861;28;20026;-68
2023/05/28 07:38:14;;;;;;;16.27;7.30;;;21.30;99.90;;;;;;4999343;28;20034;-68
2023/05/28 07:40:40;;;;;;;14.48;5.53;;;21.40;99.90;;;;;;4999640;28;20026;-68
2023/05/28 07:43:06;;;;;;;15.65;6.45;;;21.50;99.90;;;;;;4982225;28;20482;-68
2023/05/28 07:45:31;;;;;;;15.30;6.07;;;21.70;99.90;;;;;;4999513;28;20021;-68
2023/05/28 07:47:57;;;;;;;16.63;5.43;;;21.80;99.90;;;;;;4999581;28;20026;-68
2023/05/28 07:50:23;;;;;;;18.48;7.15;;;21.80;99.90;;;;;;4999577;28;20486;-68
2023/05/28 07:52:49;;;;;;;14.68;7.07;;;22.00;99.90;;;;;;4997598;28;20117;-71
2023/05/28 07:55:15;;;;;;;14.85;6.50;;;22.20;99.90;;;;;;4999461;28;20029;-71
2023/05/28 07:57:41;;;;;;;12.85;5.30;;;22.20;99.90;;;;;;4999245;28;20050;-70
2023/05/28 08:00:10;;;;;;;16.13;6.88;;;22.40;99.90;;;;;;4998492;28;20709;-71
2023/05/28 08:02:35;;;;;;;13.95;6.38;;;22.50;99.90;;;;;;4999262;28;20109;-71
2023/05/28 08:05:01;;;;;;;22.75;5.80;;;22.70;99.90;;;;;;5004160;28;20046;-71
2023/05/28 08:07:28;;;;;;;16.40;5.65;;;22.80;99.90;;;;;;4999006;28;20030;-70
2023/05/28 08:09:54;;;;;;;14.02;5.70;;;23.00;99.90;;;;;;4981650;28;20019;-72
2023/05/28 08:12:20;;;;;;;18.88;5.93;;;23.10;99.90;;;;;;4999118;28;20033;-71
2023/05/28 08:14:45;;;;;;;18.83;7.32;;;23.20;99.90;;;;;;4999182;28;20504;-71
2023/05/28 08:17:11;;;;;;;14.30;6.05;;;23.30;99.90;;;;;;4999272;28;20027;-70
2023/05/28 08:19:37;;;;;;;15.18;6.60;;;23.40;99.90;;;;;;4998937;28;20034;-71
2023/05/28 08:22:02;;;;;;;16.27;5.28;;;23.50;99.90;;;;;;4998388;28;20038;-70
2023/05/28 08:24:28;;;;;;;17.33;5.28;;;23.50;99.90;;;;;;4998296;28;20056;-71
2023/05/28 08:26:54;;;;;;;15.05;6.10;;;23.50;99.90;;;;;;4998644;28;20029;-71
2023/05/28 08:29:19;;;;;;;18.08;5.10;;;23.60;99.90;;;;;;4998992;28;20576;-70
2023/05/28 08:31:46;;;;;;;11.65;4.35;;;23.70;99.90;;;;;;4998753;28;20026;-70
2023/05/28 08:34:11;;;;;;;13.05;5.47;;;23.70;99.90;;;;;;4981088;28;20034;-70
2023/05/28 08:36:37;;;;;;;11.77;5.15;;;23.60;99.90;;;;;;4998457;28;20041;-70
2023/05/28 08:39:04;;;;;;;9.10;4.47;;;23.70;99.90;;;;;;4998713;28;20038;-71
2023/05/28 08:41:30;;;;;;;15.88;5.53;;;23.80;99.90;;;;;;4998117;28;20026;-72
2023/05/28 08:43:55;;;;;;;17.13;5.07;;;23.90;99.90;;;;;;4981117;28;20082;-71
2023/05/28 08:46:21;;;;;;;12.40;5.65;;;24.10;99.90;;;;;;4998412;28;20030;-71
2023/05/28 08:48:48;;;;;;;22.38;5.95;;;24.30;99.90;;;;;;4998736;28;20015;-71
2023/05/28 08:51:15;;;;;;;16.42;5.38;;;24.30;99.90;;;;;;4998432;28;20121;-71
2023/05/28 08:53:47;;;;;;;12.75;5.05;;;24.30;99.90;;;;;;4998524;28;20360;-70
2023/05/28 08:56:13;;;;;;;21.60;6.38;;;24.30;99.90;;;;;;4997895;28;20079;-70
2023/05/28 08:58:39;;;;;;;14.82;5.05;;;24.50;99.90;;;;;;4984056;28;20061;-70
2023/05/28 09:01:06;;;;;;;17.60;6.60;;;24.50;99.90;;;;;;4998199;28;20113;-70
2023/05/28 09:03:37;;;;;;;13.70;5.90;;;24.60;99.90;;;;;;4998752;28;20022;-71
2023/05/28 09:06:03;;;;;;;19.60;5.32;;;24.70;99.90;;;;;;4997827;28;20491;-70
2023/05/28 09:08:29;;;;;;;13.23;5.93;;;24.80;99.90;;;;;;4980463;28;20525;-70
2023/05/28 09:11:08;;;;;;;12.30;5.25;;;24.80;99.90;;;;;;4997901;28;20022;-71
2023/05/28 09:13:33;;;;;;;20.50;5.70;;;24.90;99.90;;;;;;4980401;28;20114;-71
2023/05/28 09:15:59;;;;;;;13.27;5.00;;;24.90;99.90;;;;;;4997859;28;20042;-70
2023/05/28 09:18:25;;;;;;;24.30;6.13;;;25.00;99.90;;;;;;4997808;28;20495;-70
2023/05/28 09:20:51;;;;;;;15.52;4.93;;;25.00;99.90;;;;;;4998180;28;20026;-71
2023/05/28 09:23:20;;;;;;;21.27;5.65;;;25.10;99.90;;;;;;4988671;28;20027;-71
2023/05/28 09:25:46;;;;;;;13.85;5.28;;;25.20;99.90;;;;;;4997533;28;20026;-71
2023/05/28 09:28:15;;;;;;;14.70;5.78;;;25.40;99.90;;;;;;4995468;28;20034;-70
2023/05/28 09:30:41;;;;;;;18.80;4.93;;;25.50;99.90;;;;;;4998044;28;20061;-71
2023/05/28 09:33:08;;;;;;;15.63;5.68;;;25.50;99.90;;;;;;4997198;28;20018;-71
2023/05/28 09:35:35;;;;;;;18.15;6.03;;;25.50;99.90;;;;;;4999494;28;20526;-71
2023/05/28 09:38:10;;;;;;;14.52;5.88;;;25.60;99.90;;;;;;4981758;28;20086;-71
2023/05/28 09:40:41;;;;;;;14.70;5.93;;;25.60;99.90;;;;;;4995616;28;20034;-71
2023/05/28 09:43:08;;;;;;;13.55;5.47;;;25.60;99.90;;;;;;4995838;28;20030;-71
2023/05/28 09:45:34;;;;;;;11.77;5.18;;;25.80;99.90;;;;;;4994624;28;20026;-71
2023/05/28 09:48:01;;;;;;;13.98;5.03;;;25.90;99.90;;;;;;4999155;28;20018;-71
2023/05/28 09:50:27;;;;;;;23.25;6.32;;;26.00;99.90;;;;;;4996567;28;20036;-71
2023/05/28 09:52:57;;;;;;;14.38;4.70;;;26.10;99.90;;;;;;4994054;28;20046;-71
2023/05/28 09:55:27;;;;;;;14.05;4.60;;;26.20;99.90;;;;;;4996175;28;20152;-72
2023/05/28 09:58:05;;;;;;;20.10;4.95;;;26.30;99.90;;;;;;4996441;28;20034;-68
2023/05/28 10:00:35;;;;;;;14.95;5.03;;;26.40;99.90;;;;;;4998757;28;20026;-69
2023/05/28 10:03:21;;;;;;;;;;;26.50;99.90;;;;;;4982953;28;20466;-69
2023/05/28 10:05:51;;;;;;;14.10;4.95;;;26.40;99.90;;;;;;4996578;28;19913;-69
2023/05/28 10:08:19;;;;;;;21.58;6.35;;;26.50;99.90;;;;;;4996000;28;20022;-68
2023/05/28 10:10:51;;;;;;;12.85;5.30;;;26.50;99.90;;;;;;5001306;28;20053;-68
2023/05/28 10:13:16;;;;;;;20.77;5.50;;;26.50;99.90;;;;;;4996112;28;20174;-68
2023/05/28 10:15:43;;;;;;;9.50;4.80;;;26.60;99.90;;;;;;5000114;28;20058;-68
2023/05/28 10:18:10;;;;;;;20.33;5.07;;;26.60;99.90;;;;;;4996324;28;20102;-68
2023/05/28 10:20:35;;;;;;;16.17;4.75;;;26.60;99.90;;;;;;4978988;28;20057;-68
2023/05/28 10:23:02;;;;;;;11.57;4.65;;;26.70;99.90;;;;;;4979353;28;20034;-68
2023/05/28 10:25:28;;;;;;;15.52;4.80;;;26.70;99.90;;;;;;4983790;28;21331;-68
2023/05/28 10:28:00;;;;;;;15.73;5.25;;;26.80;99.90;;;;;;5001950;28;20098;-68
2023/05/28 10:30:32;;;;;;;15.18;5.40;;;26.90;99.90;;;;;;5004703;28;20018;-68
2023/05/28 10:32:58;;;;;;;16.88;5.68;;;27.00;99.90;;;;;;4984799;28;20148;-69
2023/05/28 10:35:23;;;;;;;13.15;5.30;;;26.90;99.90;;;;;;5003690;28;20057;-69
2023/05/28 10:37:49;;;;;;;17.85;4.93;;;26.90;99.90;;;;;;5004347;28;20056;-68
2023/05/28 10:40:23;;;;;;;16.55;5.25;;;27.00;99.90;;;;;;5000492;28;20028;-69
2023/05/28 10:42:49;;;;;;;16.00;4.90;;;27.10;99.90;;;;;;5006384;28;20026;-69
2023/05/28 10:45:14;;;;;;;14.27;5.57;;;27.00;99.70;;;;;;4984424;28;20054;-69
2023/05/28 10:47:59;;;;;;;14.60;4.80;;;27.10;99.60;;;;;;4983844;28;20027;-69
2023/05/28 10:50:24;;;;;;;16.92;5.15;;;27.00;99.20;;;;;;5001728;28;20026;-68
2023/05/28 10:53:10;;;;;;;14.80;5.75;;;27.10;99.90;;;;;;5000346;28;20022;-69
2023/05/28 10:55:54;;;;;;;19.73;5.20;;;27.00;98.70;;;;;;4999390;28;20631;-69
2023/05/28 10:58:23;;;;;;;13.85;5.50;;;27.10;97.50;;;;;;4989498;28;20153;-68
2023/05/28 11:00:49;;;;;;;21.77;5.25;;;27.20;96.00;;;;;;5003344;28;20485;-69
2023/05/28 11:03:15;;;;;;;14.88;4.63;;;27.30;98.00;;;;;;5001419;28;20164;-69
2023/05/28 11:05:40;;;;;;;20.05;5.70;;;27.40;96.90;;;;;;5002368;28;20045;-69
2023/05/28 11:08:08;;;;;;;14.90;5.07;;;27.30;95.40;;;;;;4998969;28;20478;-69
2023/05/28 11:10:34;;;;;;;13.82;4.63;;;27.40;97.50;;;;;;5004150;28;20015;-69
2023/05/28 11:13:00;;;;;;;16.88;4.72;;;27.50;98.20;;;;;;4980702;28;20516;-69
2023/05/28 11:15:25;;;;;;;13.27;5.03;;;27.60;96.60;;;;;;5002534;28;20508;-69
2023/05/28 11:17:51;;;;;;;10.80;4.70;;;27.70;97.90;;;;;;5001142;28;20056;-69
2023/05/28 11:20:27;;;;;;;13.77;4.75;;;27.80;98.90;;;;;;4999192;28;20084;-69
2023/05/28 11:22:53;;;;;;;13.25;4.28;;;27.90;99.90;;;;;;4998828;28;20064;-69
2023/05/28 11:25:25;;;;;;;21.20;4.63;;;27.90;97.20;;;;;;4982689;28;20030;-69
2023/05/28 11:27:52;;;;;;;16.70;4.70;;;27.90;95.90;;;;;;4999167;28;20058;-69
2023/05/28 11:30:18;;;;;;;17.23;5.32;;;27.80;94.90;;;;;;4999570;28;20544;-69
2023/05/28 11:32:45;;;;;;;8.90;4.63;;;27.80;95.50;;;;;;4997929;28;20035;-69
2023/05/28 11:35:13;;;;;;;15.55;4.60;;;27.80;94.80;;;;;;5001119;28;20023;-69
2023/05/28 11:37:40;;;;;;;16.40;5.55;;;27.80;94.90;;;;;;5000881;28;20105;-69
2023/05/28 11:40:11;;;;;;;15.35;4.63;;;27.90;92.50;;;;;;5001743;28;20018;-68
2023/05/28 11:42:41;;;;;;;18.33;4.78;;;27.60;94.70;;;;;;4999510;28;20071;-69
2023/05/28 11:45:07;;;;;;;;;;;27.80;93.20;;;;;;4992258;28;20026;-69
2023/05/28 11:47:35;;;;;;;8.48;3.80;;;28.00;93.30;;;;;;5004847;28;19906;-69
2023/05/28 11:50:08;;;;;;;15.73;4.28;;;28.10;91.80;;;;;;4997809;28;20547;-68
2023/05/28 11:52:34;;;;;;;19.40;5.03;;;28.10;90.10;;;;;;5002126;28;20402;-69
2023/05/28 11:55:01;;;;;;;12.10;4.65;;;28.10;86.80;;;;;;5001259;28;20030;-69
2023/05/28 11:57:28;;;;;;;14.13;4.70;;;27.90;89.50;;;;;;4999822;28;20042;-69
2023/05/28 12:00:01;;;;;;;15.93;4.55;;;27.80;90.10;;;;;;4996190;28;20019;-69
2023/05/28 12:02:27;;;;;;;19.73;5.45;;;27.90;92.40;;;;;;5001674;28;20114;-69
2023/05/28 12:04:56;;;;;;;16.80;4.47;;;28.10;90.50;;;;;;4998286;28;20049;-69
2023/05/28 12:07:27;;;;;;;12.60;5.00;;;28.20;90.00;;;;;;5002259;28;20018;-69
2023/05/28 12:10:08;;;;;;;15.90;4.28;;;28.40;91.80;;;;;;4999912;28;20029;-69
2023/05/28 12:12:39;;;;;;;14.98;4.63;;;28.40;91.20;;;;;;4995550;28;20023;-69
2023/05/28 12:15:06;;;;;;;17.02;5.00;;;28.50;85.90;;;;;;5002331;28;20040;-69
2023/05/28 12:17:39;;;;;;;12.13;4.20;;;28.60;91.60;;;;;;4998158;28;20019;-69
2023/05/28 12:20:12;;;;;;;12.82;4.00;;;28.70;86.10;;;;;;4977560;28;20089;-69
2023/05/28 12:22:41;;;;;;;15.30;5.15;;;28.80;85.40;;;;;;4994733;28;20038;-69
2023/05/28 12:25:07;;;;;;;17.08;5.38;;;28.80;84.50;;;;;;4993925;28;20031;-69
2023/05/28 12:27:34;;;;;;;16.10;4.53;;;28.80;84.30;;;;;;4993990;28;20034;-69
2023/05/28 12:30:00;;;;;;;13.23;4.47;;;28.90;82.50;;;;;;5001525;28;20538;-69
2023/05/28 12:32:26;;;;;;;12.05;3.42;;;29.10;91.40;;;;;;4999317;28;20029;-69
2023/05/28 12:34:55;;;;;;;15.52;4.45;;;29.20;90.00;;;;;;5002488;28;20486;-69
2023/05/28 12:37:24;;;;;;;18.15;3.60;;;29.10;82.90;;;;;;4982381;28;20037;-69